Time;durP1;ratioP1;P1;durP2;ratioP2;P2;SDS_P1;SDS_P2;PMS_P1;PMS_P2;Temp;Humidity;BMP_temperature;BMP_pressure;BME280_temperature;BME280_humidity;BME280_pressure;Samples;Min_cycle;Max_cycle;Signal;HPM_P1;HPM_P2
2021/07/10 00:01:56;;;;;;;;;14.00;12.75;;;;;19.16;63.84;101801.03;4962036;28;45357;-81
2021/07/10 00:04:21;;;;;;;;;13.75;11.25;;;;;19.18;63.78;101794.72;4961880;28;45293;-83
2021/07/10 00:06:47;;;;;;;;;15.00;14.00;;;;;19.20;63.71;101791.97;4963508;28;45368;-84
2021/07/10 00:09:13;;;;;;;;;13.00;12.75;;;;;19.22;64.14;101782.09;4959295;28;46068;-84
2021/07/10 00:11:39;;;;;;;;;13.25;12.00;;;;;19.27;64.04;101785.38;4949275;28;46946;-83
2021/07/10 00:14:05;;;;;;;;;11.00;11.00;;;;;19.32;63.93;101778.00;4961581;28;45721;-86
2021/07/10 00:16:30;;;;;;;;;15.75;13.00;;;;;19.37;63.77;101779.53;4960190;28;45315;-83
2021/07/10 00:18:55;;;;;;;;;12.25;12.00;;;;;19.38;63.57;101778.59;4961910;28;45330;-80
2021/07/10 00:21:21;;;;;;;;;12.00;12.00;;;;;19.39;63.59;101780.31;4976343;28;47228;-80
2021/07/10 00:23:46;;;;;;;;;16.50;13.50;;;;;19.43;63.99;101780.06;4961866;28;45234;-80
2021/07/10 00:26:12;;;;;;;;;12.75;12.00;;;;;19.45;63.47;101772.00;4958417;28;45612;-81
2021/07/10 00:28:37;;;;;;;;;12.50;12.50;;;;;19.52;63.56;101775.19;4959642;28;47368;-80
2021/07/10 00:31:02;;;;;;;;;10.75;10.75;;;;;19.54;64.24;101766.16;4961221;28;46397;-81
2021/07/10 00:33:28;;;;;;;;;10.25;9.50;;;;;19.60;63.84;101756.97;4960922;28;45349;-78
2021/07/10 00:35:53;;;;;;;;;8.25;8.25;;;;;19.67;63.50;101750.34;4960122;28;45716;-78
2021/07/10 00:38:18;;;;;;;;;11.50;11.50;;;;;19.70;63.88;101746.66;4960418;28;45435;-78
2021/07/10 00:40:44;;;;;;;;;7.50;7.00;;;;;19.71;62.94;101739.47;4961188;28;45292;-78
2021/07/10 00:43:09;;;;;;;;;9.25;9.25;;;;;19.70;63.09;101748.44;4960115;28;45350;-78
2021/07/10 00:45:34;;;;;;;;;13.25;12.00;;;;;19.68;63.42;101735.19;4961324;28;45593;-77
2021/07/10 00:48:00;;;;;;;;;13.75;10.75;;;;;19.63;62.67;101738.09;4975741;28;46327;-78
2021/07/10 00:50:26;;;;;;;;;10.50;10.50;;;;;19.55;62.83;101737.69;4959481;28;47691;-78
2021/07/10 00:52:52;;;;;;;;;11.00;10.00;;;;;19.53;63.38;101739.59;4961022;28;46083;-77
2021/07/10 00:55:19;;;;;;;;;11.25;11.25;;;;;19.48;62.98;101734.50;4959680;28;45230;-76
2021/07/10 00:57:45;;;;;;;;;13.25;11.50;;;;;19.43;63.15;101737.41;4959638;28;45551;-76
2021/07/10 01:00:18;;;;;;;;;13.50;9.50;;;;;19.41;63.80;101727.78;4958424;28;46331;-76
2021/07/10 01:02:45;;;;;;;;;10.50;9.00;;;;;19.37;63.49;101719.09;4961298;28;45560;-76
2021/07/10 01:05:16;;;;;;;;;12.75;11.50;;;;;19.34;63.26;101720.13;4961277;28;45297;-76
2021/07/10 01:07:41;;;;;;;;;16.00;12.00;;;;;19.29;63.64;101722.19;4963048;28;45354;-79
2021/07/10 01:10:08;;;;;;;;;12.00;12.00;;;;;19.29;63.87;101718.66;4958889;28;47263;-78
2021/07/10 01:12:36;;;;;;;;;10.00;9.00;;;;;19.28;63.63;101723.13;4960737;28;45235;-77
2021/07/10 01:15:03;;;;;;;;;11.00;9.25;;;;;19.26;63.94;101725.00;4960690;28;45187;-79
2021/07/10 01:17:28;;;;;;;;;12.00;11.25;;;;;19.23;63.97;101715.41;4958663;28;45558;-77
2021/07/10 01:20:00;;;;;;;;;14.25;10.00;;;;;19.24;64.19;101710.91;4961062;28;46264;-79
2021/07/10 01:22:26;;;;;;;;;14.25;12.25;;;;;19.26;64.27;101695.69;4959668;28;45885;-80
2021/07/10 01:24:52;;;;;;;;;14.75;12.25;;;;;19.28;64.21;101700.94;4960804;28;45298;-78
2021/07/10 01:27:18;;;;;;;;;13.75;10.00;;;;;19.30;64.66;101694.59;4959689;28;45531;-77
2021/07/10 01:29:46;;;;;;;;;14.25;14.00;;;;;19.33;64.45;101683.75;4957032;28;47950;-80
2021/07/10 01:32:14;;;;;;;;;14.25;11.00;;;;;19.39;64.57;101681.69;4960173;28;45685;-76
2021/07/10 01:34:40;;;;;;;;;12.75;12.75;;;;;19.43;64.29;101680.59;4958813;28;45396;-78
2021/07/10 01:37:06;;;;;;;;;13.25;12.50;;;;;19.46;64.49;101672.41;4960812;28;45474;-83
2021/07/10 01:39:31;;;;;;;;;13.50;11.50;;;;;19.50;64.26;101673.97;4960417;28;46242;-86
2021/07/10 01:41:56;;;;;;;;;15.25;13.25;;;;;19.55;64.47;101674.56;4975249;28;45337;-87
2021/07/10 01:44:22;;;;;;;;;13.25;11.75;;;;;19.57;64.53;101669.13;4958292;28;45720;-81
2021/07/10 01:46:47;;;;;;;;;14.50;12.50;;;;;19.59;64.70;101669.91;4960032;28;45232;-81
2021/07/10 01:49:13;;;;;;;;;15.25;14.00;;;;;19.59;64.46;101655.72;4959409;28;48029;-81
2021/07/10 01:51:39;;;;;;;;;10.00;9.25;;;;;19.60;64.21;101657.44;4960570;28;45467;-82
2021/07/10 01:54:04;;;;;;;;;13.00;10.00;;;;;19.62;64.95;101656.41;4959700;28;45615;-82
2021/07/10 01:56:30;;;;;;;;;11.75;10.50;;;;;19.64;64.96;101649.16;4959404;28;45473;-80
2021/07/10 01:58:55;;;;;;;;;14.00;14.00;;;;;19.70;64.43;101647.97;4960323;28;46224;-83
2021/07/10 02:01:22;;;;;;;;;14.00;12.50;;;;;19.72;64.45;101648.75;4958303;28;45669;-83
2021/07/10 02:03:47;;;;;;;;;11.00;9.50;;;;;19.69;64.30;101646.25;4960446;28;45345;-80
2021/07/10 02:06:13;;;;;;;;;13.25;12.25;;;;;19.63;64.20;101628.78;4961305;28;45425;-80
2021/07/10 02:08:39;;;;;;;;;18.50;13.75;;;;;19.62;64.49;101636.88;4960187;28;46675;-79
2021/07/10 02:11:04;;;;;;;;;14.25;10.75;;;;;19.63;64.61;101635.94;4960130;28;45265;-80
2021/07/10 02:13:30;;;;;;;;;9.75;8.75;;;;;19.63;64.61;101639.44;4960185;28;45347;-80
2021/07/10 02:15:55;;;;;;;;;14.00;14.00;;;;;19.66;64.63;101627.75;4974482;28;46139;-82
2021/07/10 02:18:20;;;;;;;;;15.75;14.25;;;;;19.63;64.32;101625.28;4960339;28;45361;-82
2021/07/10 02:20:46;;;;;;;;;13.25;12.25;;;;;19.61;64.50;101624.47;4958822;28;45667;-84
2021/07/10 02:23:11;;;;;;;;;11.50;9.50;;;;;19.60;64.60;101626.31;4975108;28;45242;-83
2021/07/10 02:25:37;;;;;;;;;13.25;12.25;;;;;19.58;64.45;101627.34;4959788;28;45360;-81
2021/07/10 02:28:02;;;;;;;;;12.75;12.00;;;;;19.56;64.37;101627.41;4959430;28;45292;-82
2021/07/10 02:30:33;;;;;;;;;12.00;10.00;;;;;19.56;64.17;101622.06;4957194;28;45709;-81
2021/07/10 02:33:01;;;;;;;;;10.50;10.00;;;;;19.61;64.31;101624.47;4958660;28;45319;-82
2021/07/10 02:35:27;;;;;;;;;13.00;12.50;;;;;19.66;64.03;101628.59;4959000;28;45542;-81
2021/07/10 02:37:53;;;;;;;;;11.75;11.00;;;;;19.67;64.44;101627.66;4960002;28;45412;-81
2021/07/10 02:40:19;;;;;;;;;15.00;13.25;;;;;19.66;64.35;101617.94;4960140;28;45314;-82
2021/07/10 02:42:47;;;;;;;;;12.00;9.25;;;;;19.67;64.13;101613.47;4959908;28;45379;-80
2021/07/10 02:45:13;;;;;;;;;10.00;9.75;;;;;19.71;64.17;101609.66;4959396;28;46857;-80
2021/07/10 02:47:40;;;;;;;;;11.25;9.50;;;;;19.75;64.79;101613.91;4959691;28;45403;-87
2021/07/10 02:50:08;;;;;;;;;11.75;10.00;;;;;19.77;64.33;101617.31;4960199;28;45300;-80
2021/07/10 02:52:33;;;;;;;;;13.00;10.50;;;;;19.77;63.67;101601.31;4959960;28;46585;-80
2021/07/10 02:54:59;;;;;;;;;10.75;10.75;;;;;19.72;63.73;101605.19;4959208;28;45870;-81
2021/07/10 02:57:24;;;;;;;;;14.25;10.75;;;;;19.72;63.66;101598.06;4961769;28;45715;-78
2021/07/10 02:59:49;;;;;;;;;9.00;9.00;;;;;19.70;63.75;101602.63;4962752;28;45302;-78
2021/07/10 03:02:15;;;;;;;;;11.50;11.25;;;;;19.66;63.73;101598.41;4963250;28;45470;-76
2021/07/10 03:04:41;;;;;;;;;13.00;10.75;;;;;19.60;63.63;101594.31;4960297;28;45476;-76
2021/07/10 03:07:06;;;;;;;;;11.25;11.25;;;;;19.57;63.54;101594.47;4967248;28;45483;-76
2021/07/10 03:09:32;;;;;;;;;10.00;8.75;;;;;19.53;63.70;101593.78;4962111;28;46968;-76
2021/07/10 03:11:57;;;;;;;;;11.00;9.75;;;;;19.54;63.45;101586.66;4977733;28;45923;-76
2021/07/10 03:14:23;;;;;;;;;15.00;11.00;;;;;19.54;63.61;101590.19;4962640;28;45313;-76
2021/07/10 03:16:48;;;;;;;;;11.25;9.75;;;;;19.55;63.84;101583.91;4962527;28;45467;-76
2021/07/10 03:19:13;;;;;;;;;11.00;9.00;;;;;19.55;63.92;101585.72;4962759;28;45293;-76
2021/07/10 03:21:39;;;;;;;;;9.75;8.75;;;;;19.55;63.65;101578.59;4977795;28;45294;-81
2021/07/10 03:24:05;;;;;;;;;9.75;9.25;;;;;19.58;63.39;101576.69;4961444;28;45767;-79
2021/07/10 03:26:31;;;;;;;;;11.50;9.25;;;;;19.60;64.03;101574.78;4962035;28;46270;-78
2021/07/10 03:28:56;;;;;;;;;8.00;7.75;;;;;19.60;63.98;101580.97;4962639;28;45243;-80
2021/07/10 03:31:21;;;;;;;;;8.00;8.00;;;;;19.61;63.94;101581.81;4962063;28;45281;-80
2021/07/10 03:33:47;;;;;;;;;14.00;11.75;;;;;19.60;63.62;101580.13;4962639;28;45158;-79
2021/07/10 03:36:13;;;;;;;;;8.25;8.25;;;;;19.59;63.65;101570.38;4974885;28;47045;-80
2021/07/10 03:38:43;;;;;;;;;11.50;11.50;;;;;19.59;63.20;101570.38;4962547;28;45334;-80
2021/07/10 03:41:10;;;;;;;;;16.25;12.75;;;;;19.58;63.44;101574.00;4962146;28;45249;-81
2021/07/10 03:43:35;;;;;;;;;9.00;8.25;;;;;19.56;63.84;101577.63;4962534;28;45417;-81
2021/07/10 03:46:02;;;;;;;;;12.25;12.00;;;;;19.58;63.60;101569.56;4961722;28;45449;-80
2021/07/10 03:48:29;;;;;;;;;11.50;10.00;;;;;19.58;63.94;101576.69;4962155;28;45313;-81
2021/07/10 03:50:54;;;;;;;;;11.75;9.75;;;;;19.50;63.75;101566.47;4960651;28;45562;-82
2021/07/10 03:53:19;;;;;;;;;8.25;8.25;;;;;19.52;63.50;101573.41;4961008;28;47214;-82
2021/07/10 03:55:45;;;;;;;;;10.75;9.75;;;;;19.53;63.77;101576.94;4959379;28;47105;-84
2021/07/10 03:58:11;;;;;;;;;11.75;10.00;;;;;19.56;63.95;101576.75;4960383;28;46480;-81
2021/07/10 04:00:36;;;;;;;;;11.50;10.00;;;;;19.58;63.71;101577.53;4960071;28;45369;-82
2021/07/10 04:03:02;;;;;;;;;11.50;9.25;;;;;19.62;63.66;101565.75;4959689;28;46056;-84
2021/07/10 04:05:27;;;;;;;;;12.75;10.75;;;;;19.63;63.79;101566.59;4976690;28;47278;-81
2021/07/10 04:07:53;;;;;;;;;13.25;10.75;;;;;19.63;63.90;101556.78;4978176;28;45254;-82
2021/07/10 04:10:18;;;;;;;;;11.50;10.75;;;;;19.64;64.25;101561.19;4957175;28;45579;-81
2021/07/10 04:12:46;;;;;;;;;10.75;10.50;;;;;19.63;63.65;101561.28;4961293;28;45203;-84
2021/07/10 04:15:14;;;;;;;;;10.00;9.25;;;;;19.64;63.64;101565.66;4959582;28;47338;-87
2021/07/10 04:17:40;;;;;;;;;11.25;9.50;;;;;19.65;63.11;101564.72;4962062;28;45693;-87
2021/07/10 04:20:07;;;;;;;;;11.75;9.50;;;;;19.71;63.25;101568.81;4960331;28;45449;-82
2021/07/10 04:22:33;;;;;;;;;9.50;9.25;;;;;19.75;63.47;101571.22;4960310;28;47362;-83
2021/07/10 04:25:03;;;;;;;;;11.00;10.50;;;;;19.81;63.21;101574.44;4961634;28;46646;-83
2021/07/10 04:27:30;;;;;;;;;12.50;9.50;;;;;19.86;63.14;101564.38;4961243;28;45815;-81
2021/07/10 04:29:55;;;;;;;;;10.25;10.00;;;;;19.85;62.73;101550.16;4959966;28;45551;-82
2021/07/10 04:32:20;;;;;;;;;12.25;10.75;;;;;19.90;63.00;101557.91;4961688;28;45551;-82
2021/07/10 04:34:46;;;;;;;;;15.25;12.50;;;;;19.92;62.81;101557.81;4961448;28;46687;-83
2021/07/10 04:37:13;;;;;;;;;10.25;10.25;;;;;19.91;62.51;101564.97;4960079;28;45226;-82
2021/07/10 04:39:38;;;;;;;;;13.00;11.25;;;;;19.91;62.85;101572.97;4976713;28;45283;-82
2021/07/10 04:42:04;;;;;;;;;12.00;10.25;;;;;19.87;63.05;101553.63;4958298;28;45601;-82
2021/07/10 04:44:29;;;;;;;;;10.25;8.00;;;;;19.87;63.13;101566.09;4959227;28;45221;-83
2021/07/10 04:46:54;;;;;;;;;11.00;11.00;;;;;19.87;62.97;101568.78;4961252;28;45331;-86
2021/07/10 04:49:20;;;;;;;;;12.25;10.50;;;;;19.89;62.90;101566.88;4960508;28;45503;-81
2021/07/10 04:51:45;;;;;;;;;9.00;8.25;;;;;19.88;63.13;101566.00;4959341;28;46949;-78
2021/07/10 04:54:10;;;;;;;;;12.50;9.75;;;;;19.86;63.36;101577.72;4961443;28;45487;-78
2021/07/10 04:56:36;;;;;;;;;12.25;10.50;;;;;19.83;63.45;101577.91;4959111;28;45235;-79
2021/07/10 04:59:01;;;;;;;;;7.00;7.00;;;;;19.77;63.76;101573.78;4961350;28;45417;-79
2021/07/10 05:01:27;;;;;;;;;13.75;12.00;;;;;19.72;64.07;101573.19;4957957;28;46785;-80
2021/07/10 05:03:52;;;;;;;;;11.50;11.25;;;;;19.68;64.21;101580.50;4960867;28;45345;-78
2021/07/10 05:06:18;;;;;;;;;9.25;9.00;;;;;19.71;63.95;101583.00;4965622;28;45589;-82
2021/07/10 05:08:43;;;;;;;;;13.25;11.25;;;;;19.71;63.92;101575.00;4958967;28;45555;-82
2021/07/10 05:11:08;;;;;;;;;13.00;11.50;;;;;19.69;64.21;101568.91;4975443;28;46000;-82
2021/07/10 05:13:34;;;;;;;;;12.50;10.50;;;;;19.68;64.28;101570.69;4960971;28;45347;-80
2021/07/10 05:15:59;;;;;;;;;14.50;12.50;;;;;19.66;64.31;101571.75;4959809;28;45388;-78
2021/07/10 05:18:24;;;;;;;;;13.25;12.50;;;;;19.65;63.96;101576.25;4959960;28;45354;-77
2021/07/10 05:20:50;;;;;;;;;14.25;11.75;;;;;19.62;64.29;101583.53;4959655;28;45457;-77
2021/07/10 05:23:15;;;;;;;;;10.00;10.00;;;;;19.57;63.82;101570.47;4958625;28;46902;-78
2021/07/10 05:25:41;;;;;;;;;11.50;10.50;;;;;19.52;64.62;101585.88;4958979;28;45384;-77
2021/07/10 05:28:06;;;;;;;;;16.00;12.25;;;;;19.51;64.56;101579.69;4960495;28;45340;-77
2021/07/10 05:30:32;;;;;;;;;14.50;9.00;;;;;19.50;64.78;101577.13;4960234;28;45314;-77
2021/07/10 05:32:57;;;;;;;;;12.25;10.25;;;;;19.43;64.72;101572.13;4960188;28;45529;-77
2021/07/10 05:35:23;;;;;;;;;12.00;12.00;;;;;19.39;65.10;101570.59;4960926;28;45285;-77
2021/07/10 05:37:49;;;;;;;;;10.00;9.75;;;;;19.38;65.29;101576.03;4959659;28;45250;-77
2021/07/10 05:40:16;;;;;;;;;10.00;10.00;;;;;19.36;65.24;101576.09;4959794;28;45235;-76
2021/07/10 05:42:42;;;;;;;;;10.00;10.00;;;;;19.34;65.44;101568.19;4959945;28;45340;-76
2021/07/10 05:45:08;;;;;;;;;14.25;11.75;;;;;19.37;65.74;101571.63;4959724;28;45191;-76
2021/07/10 05:47:34;;;;;;;;;13.50;12.00;;;;;19.35;65.69;101563.72;4960679;28;45376;-81
2021/07/10 05:50:00;;;;;;;;;8.00;7.50;;;;;19.34;65.90;101565.53;4958788;28;45321;-76
2021/07/10 05:52:25;;;;;;;;;14.75;12.50;;;;;19.39;65.64;101564.41;4956744;28;46479;-84
2021/07/10 05:54:51;;;;;;;;;12.75;10.75;;;;;19.41;65.88;101554.53;4959741;28;45277;-81
2021/07/10 05:57:16;;;;;;;;;9.75;9.25;;;;;19.48;66.19;101552.38;4957954;28;45450;-80
2021/07/10 05:59:42;;;;;;;;;13.00;11.75;;;;;19.48;66.35;101547.91;4959809;28;45322;-80
2021/07/10 06:02:07;;;;;;;;;12.00;11.00;;;;;19.56;66.39;101545.63;4959969;28;45370;-82
2021/07/10 06:04:34;;;;;;;;;13.00;13.00;;;;;19.62;65.40;101547.09;4959617;28;45333;-82
2021/07/10 06:07:00;;;;;;;;;10.00;8.25;;;;;19.67;65.60;101546.81;4960127;28;45211;-82
2021/07/10 06:09:25;;;;;;;;;14.00;10.75;;;;;19.72;65.74;101544.72;4957343;28;45386;-82
2021/07/10 06:11:51;;;;;;;;;12.75;12.25;;;;;19.83;65.54;101545.91;4959268;28;45245;-82
2021/07/10 06:14:16;;;;;;;;;8.25;8.25;;;;;19.88;65.42;101549.13;4958567;28;45377;-82
2021/07/10 06:16:41;;;;;;;;;15.25;13.75;;;;;19.97;65.46;101553.06;4956724;28;45387;-84
2021/07/10 06:19:07;;;;;;;;;8.75;8.75;;;;;20.05;64.93;101541.94;4958894;28;45373;-88
2021/07/10 06:21:32;;;;;;;;;11.25;11.00;;;;;20.15;64.89;101540.44;4973862;28;45891;-86
2021/07/10 06:23:58;;;;;;;;;12.00;10.00;;;;;20.20;64.61;101538.34;4953786;28;45137;-85
2021/07/10 06:26:23;;;;;;;;;11.50;9.50;;;;;20.21;64.03;101539.22;4958230;28;45580;-85
2021/07/10 06:28:50;;;;;;;;;12.75;10.00;;;;;20.23;63.57;101539.97;4956312;28;45512;-86
2021/07/10 06:31:18;;;;;;;;;11.00;8.75;;;;;20.24;63.53;101541.69;4959734;28;45771;-86
2021/07/10 06:33:44;;;;;;;;;10.00;9.75;;;;;20.28;63.95;101539.69;4962265;28;45413;-86
2021/07/10 06:36:10;;;;;;;;;11.75;7.75;;;;;20.33;63.88;101532.25;4973646;28;45309;-87
2021/07/10 06:38:35;;;;;;;;;14.25;13.50;;;;;20.41;63.74;101540.66;4958704;28;45551;-86
2021/07/10 06:41:01;;;;;;;;;10.75;9.25;;;;;20.48;64.03;101534.91;4960620;28;46386;-86
2021/07/10 06:43:26;;;;;;;;;9.75;9.75;;;;;20.51;63.21;101527.56;4963060;28;45223;-86
2021/07/10 06:45:51;;;;;;;;;12.50;9.00;;;;;20.56;63.12;101524.63;4961468;28;45464;-86
2021/07/10 06:48:17;;;;;;;;;7.75;7.75;;;;;20.63;63.30;101528.59;4961298;28;45629;-85
2021/07/10 06:50:42;;;;;;;;;10.75;10.00;;;;;20.71;63.28;101525.44;4961776;28;45602;-84
2021/07/10 06:53:08;;;;;;;;;13.00;11.00;;;;;20.77;62.92;101513.50;4961548;28;45348;-85
2021/07/10 06:55:33;;;;;;;;;10.50;9.75;;;;;20.86;62.56;101517.41;4960791;28;45402;-85
2021/07/10 06:57:59;;;;;;;;;9.75;9.75;;;;;20.88;62.58;101524.38;4976246;28;47351;-85
2021/07/10 07:00:24;;;;;;;;;11.75;9.50;;;;;20.88;61.74;101511.00;4956924;28;45441;-85
2021/07/10 07:02:49;;;;;;;;;10.50;10.25;;;;;20.84;62.05;101514.81;4961607;28;45645;-85
2021/07/10 07:05:15;;;;;;;;;9.00;9.00;;;;;20.92;61.94;101517.84;4959926;28;45440;-85
2021/07/10 07:07:41;;;;;;;;;15.50;14.50;;;;;20.98;62.43;101518.41;4957545;28;46697;-85
2021/07/10 07:10:08;;;;;;;;;13.75;12.25;;;;;21.02;62.37;101519.94;4961714;28;46246;-85
2021/07/10 07:12:34;;;;;;;;;10.25;10.00;;;;;21.05;62.52;101517.09;4961119;28;45302;-85
2021/07/10 07:15:00;;;;;;;;;10.25;9.25;;;;;21.07;62.21;101515.16;4962896;28;45234;-85
2021/07/10 07:17:25;;;;;;;;;11.50;11.00;;;;;21.10;61.78;101511.44;4962153;28;45448;-85
2021/07/10 07:19:50;;;;;;;;;9.50;8.75;;;;;21.10;61.56;101509.63;4959990;28;46523;-85
2021/07/10 07:22:16;;;;;;;;;11.50;10.50;;;;;21.17;61.71;101511.88;4975058;28;45461;-85
2021/07/10 07:24:41;;;;;;;;;13.50;11.00;;;;;21.20;62.29;101509.88;4961926;28;45411;-85
2021/07/10 07:27:07;;;;;;;;;9.25;9.25;;;;;21.24;61.70;101505.16;4959174;28;45523;-85
2021/07/10 07:29:32;;;;;;;;;8.50;8.25;;;;;21.30;61.93;101502.09;4973968;28;47156;-85
2021/07/10 07:31:57;;;;;;;;;9.00;9.00;;;;;21.34;60.77;101498.25;4961173;28;45750;-85
2021/07/10 07:34:23;;;;;;;;;8.25;7.75;;;;;21.41;61.08;101500.53;4960315;28;45562;-85
2021/07/10 07:36:48;;;;;;;;;9.25;9.00;;;;;21.44;60.93;101494.94;4959020;28;45479;-85
2021/07/10 07:39:15;;;;;;;;;7.25;7.25;;;;;21.50;60.69;101493.69;4959636;28;46168;-85
2021/07/10 07:41:41;;;;;;;;;4.00;4.00;;;;;21.52;58.48;101492.63;4960916;28;45572;-85
2021/07/10 07:44:07;;;;;;;;;1.25;1.25;;;;;21.50;56.33;101486.53;4973041;28;45397;-85
2021/07/10 07:46:33;;;;;;;;;1.25;1.25;;;;;21.43;54.57;101491.44;4953218;28;45267;-85
2021/07/10 07:48:58;;;;;;;;;2.75;2.00;;;;;21.34;54.12;101498.25;4957465;28;46302;-86
2021/07/10 07:51:24;;;;;;;;;4.00;4.00;;;;;21.26;54.41;101497.91;4961271;28;45559;-86
2021/07/10 07:53:49;;;;;;;;;2.00;2.00;;;;;21.23;54.50;101493.66;4958908;28;46490;-86
2021/07/10 07:56:15;;;;;;;;;7.00;4.00;;;;;21.22;55.67;101488.38;4961209;28;45819;-85
2021/07/10 07:58:41;;;;;;;;;6.25;4.75;;;;;21.22;56.49;101488.38;4958145;28;48122;-85
2021/07/10 08:01:07;;;;;;;;;2.00;2.00;;;;;21.27;57.14;101491.59;4960834;28;45184;-85
2021/07/10 08:03:33;;;;;;;;;5.00;5.00;;;;;21.26;57.79;101492.56;4962272;28;45235;-86
2021/07/10 08:05:58;;;;;;;;;2.00;2.00;;;;;21.26;58.84;101487.22;4963343;28;46374;-82
2021/07/10 08:08:23;;;;;;;;;3.75;3.00;;;;;21.21;58.09;101489.34;4966602;28;46352;-82
2021/07/10 08:10:49;;;;;;;;;1.25;1.25;;;;;21.15;55.20;101490.63;4958263;28;45667;-80
2021/07/10 08:13:15;;;;;;;;;2.00;2.00;;;;;21.09;54.76;101488.34;4961097;28;45552;-83
2021/07/10 08:15:40;;;;;;;;;2.00;1.50;;;;;21.06;54.60;101494.75;4961037;28;45664;-83
2021/07/10 08:18:06;;;;;;;;;4.50;4.25;;;;;21.09;55.45;101497.22;4961858;28;46433;-84
2021/07/10 08:20:32;;;;;;;;;3.00;3.00;;;;;21.10;56.11;101482.91;4961434;28;45428;-83
2021/07/10 08:22:57;;;;;;;;;3.00;3.00;;;;;21.16;55.00;101488.81;4960771;28;45382;-84
2021/07/10 08:25:24;;;;;;;;;2.00;2.00;;;;;21.18;54.71;101494.91;4951018;28;45395;-84
2021/07/10 08:27:50;;;;;;;;;2.25;2.25;;;;;21.19;55.25;101488.56;4961424;28;46267;-83
2021/07/10 08:30:17;;;;;;;;;5.25;3.00;;;;;21.29;56.06;101491.50;4961180;28;45238;-84
2021/07/10 08:32:47;;;;;;;;;5.50;3.00;;;;;21.31;55.68;101485.09;4961735;28;45329;-92
2021/07/10 08:35:14;;;;;;;;;3.75;3.75;;;;;21.32;55.57;101480.59;4960679;28;45574;-84
2021/07/10 08:37:39;;;;;;;;;2.50;2.50;;;;;21.34;56.69;101474.19;4961331;28;47106;-84
2021/07/10 08:40:07;;;;;;;;;5.00;4.75;;;;;21.39;55.97;101473.00;4960703;28;45152;-84
2021/07/10 08:42:33;;;;;;;;;3.00;3.00;;;;;21.43;55.84;101466.53;4958241;28;45163;-85
2021/07/10 08:45:03;;;;;;;;;4.75;3.25;;;;;21.41;56.54;101469.28;4958423;28;45591;-85
2021/07/10 08:47:30;;;;;;;;;5.75;4.25;;;;;21.40;55.91;101467.59;4961124;28;45254;-84
2021/07/10 08:49:57;;;;;;;;;4.00;4.00;;;;;21.41;56.77;101485.31;4961045;28;45627;-84
2021/07/10 08:52:24;;;;;;;;;3.00;3.00;;;;;21.38;56.33;101482.00;4957008;28;45548;-84
2021/07/10 08:54:49;;;;;;;;;4.25;4.25;;;;;21.38;57.16;101485.56;4959007;28;45745;-85
2021/07/10 08:57:14;;;;;;;;;3.75;2.75;;;;;21.35;57.11;101489.28;4960400;28;45447;-84
2021/07/10 08:59:40;;;;;;;;;4.00;4.00;;;;;21.32;56.75;101489.47;4958246;28;45484;-86
2021/07/10 09:02:06;;;;;;;;;2.75;2.75;;;;;21.28;56.50;101490.66;4974118;28;45538;-86
2021/07/10 09:04:31;;;;;;;;;3.50;3.50;;;;;21.22;55.64;101496.41;4961651;28;45706;-87
2021/07/10 09:06:57;;;;;;;;;2.50;2.25;;;;;21.17;56.47;101498.53;4972049;28;45537;-85
2021/07/10 09:10:01;;;;;;;;;3.75;3.75;;;;;21.20;55.56;101495.66;4959493;28;45311;-85
2021/07/10 09:12:28;;;;;;;;;2.25;2.00;;;;;21.22;56.40;101502.59;4896357;28;45623;-85
2021/07/10 09:14:54;;;;;;;;;2.25;2.25;;;;;21.20;56.05;101498.31;4884536;29;46424;-86
2021/07/10 09:17:24;;;;;;;;;5.25;2.25;;;;;21.25;57.10;101518.44;4918872;28;45460;-87
2021/07/10 09:19:50;;;;;;;;;2.25;2.25;;;;;21.20;56.24;101509.00;4960309;28;45431;-86
2021/07/10 09:22:27;;;;;;;;;1.50;1.50;;;;;21.22;56.01;101515.13;4960905;28;45373;-87
2021/07/10 09:24:52;;;;;;;;;1.00;1.00;;;;;21.14;56.30;101505.78;4958255;28;45416;-87
2021/07/10 09:27:17;;;;;;;;;3.50;3.00;;;;;21.10;55.04;101511.44;4960186;28;46220;-89
2021/07/10 09:29:46;;;;;;;;;3.00;3.00;;;;;21.01;55.80;101505.72;4959731;28;45448;-87
2021/07/10 09:32:16;;;;;;;;;3.00;3.00;;;;;20.92;57.29;101491.13;4960719;28;45289;-87
2021/07/10 09:34:45;;;;;;;;;2.00;2.00;;;;;20.95;57.56;101499.91;4960470;28;45504;-86
2021/07/10 09:37:20;;;;;;;;;5.50;4.25;;;;;20.83;57.50;101481.06;4960425;28;45478;-87
2021/07/10 09:40:04;;;;;;;;;4.00;3.50;;;;;20.72;58.71;101483.59;4959305;28;45179;-86
2021/07/10 09:42:44;;;;;;;;;3.00;3.00;;;;;20.68;59.67;101485.59;4959916;28;45349;-85
2021/07/10 09:45:23;;;;;;;;;4.25;4.00;;;;;20.61;60.18;101485.13;4960155;28;45481;-85
2021/07/10 09:47:49;;;;;;;;;3.50;3.50;;;;;20.53;59.45;101479.41;4960143;28;45481;-86
2021/07/10 09:50:21;;;;;;;;;3.00;3.00;;;;;20.48;59.95;101476.16;4958641;28;45410;-86
2021/07/10 09:52:47;;;;;;;;;5.00;4.00;;;;;20.40;61.95;101472.19;4958032;28;45683;-83
2021/07/10 09:55:14;;;;;;;;;2.00;2.00;;;;;20.33;60.75;101466.38;4959475;28;45295;-86
2021/07/10 09:57:42;;;;;;;;;3.75;3.25;;;;;20.37;62.33;101474.19;4971873;28;47928;-87
2021/07/10 10:00:07;;;;;;;;;4.75;4.75;;;;;20.39;62.80;101475.81;4960182;28;45386;-88
2021/07/10 10:02:40;;;;;;;;;4.00;3.50;;;;;20.40;61.30;101455.28;4960108;28;45172;-87
2021/07/10 10:05:11;;;;;;;;;5.25;4.00;;;;;20.45;60.80;101455.88;4959516;28;45268;-85
2021/07/10 10:07:51;;;;;;;;;5.25;3.50;;;;;20.52;60.92;101457.19;4964989;28;47357;-86
2021/07/10 10:10:24;;;;;;;;;4.00;3.00;;;;;20.62;60.38;101456.63;4963416;28;45406;-86
2021/07/10 10:13:05;;;;;;;;;6.75;4.00;;;;;20.73;60.74;101471.94;4963335;28;45378;-86
2021/07/10 10:15:51;;;;;;;;;2.25;2.00;;;;;20.84;60.51;101477.41;4963653;28;45408;-87
2021/07/10 10:18:24;;;;;;;;;4.25;3.75;;;;;20.91;60.64;101478.72;4961718;28;47328;-86
2021/07/10 10:20:51;;;;;;;;;2.00;2.00;;;;;20.97;60.01;101471.25;4962039;28;45454;-87
2021/07/10 10:23:18;;;;;;;;;2.00;2.00;;;;;21.06;60.78;101470.72;4962126;28;45294;-86
2021/07/10 10:25:43;;;;;;;;;2.75;2.00;;;;;21.07;59.20;101469.75;4962768;28;45491;-86
2021/07/10 10:28:18;;;;;;;;;2.00;2.00;;;;;21.16;59.56;101480.78;4963149;28;45249;-86
2021/07/10 10:30:44;;;;;;;;;2.50;2.50;;;;;21.17;59.33;101487.81;4959185;28;45385;-86
2021/07/10 10:33:11;;;;;;;;;3.25;2.75;;;;;21.19;59.76;101475.22;4963502;28;45490;-86
2021/07/10 10:35:37;;;;;;;;;2.50;2.25;;;;;21.24;59.32;101476.63;4963075;28;45403;-87
2021/07/10 10:38:02;;;;;;;;;2.00;2.00;;;;;21.26;58.81;101455.13;4962484;28;45436;-86
2021/07/10 10:40:28;;;;;;;;;3.00;3.00;;;;;21.29;58.05;101454.94;4962912;28;45326;-86
2021/07/10 10:43:00;;;;;;;;;3.00;3.00;;;;;21.38;57.82;101453.47;4962738;28;45380;-86
2021/07/10 10:45:30;;;;;;;;;3.00;3.00;;;;;21.42;58.23;101454.09;4961869;28;45213;-87
2021/07/10 10:47:56;;;;;;;;;4.00;4.00;;;;;21.51;57.81;101444.59;4962868;28;45465;-87
2021/07/10 10:50:23;;;;;;;;;4.00;2.75;;;;;21.55;57.78;101444.28;4961448;28;45811;-86
2021/07/10 10:52:51;;;;;;;;;5.25;4.00;;;;;21.62;58.01;101443.84;4953846;28;45475;-86
2021/07/10 10:55:28;;;;;;;;;3.75;3.75;;;;;21.74;58.14;101442.13;4959966;28;46590;-86
2021/07/10 10:57:58;;;;;;;;;1.00;1.00;;;;;21.80;56.38;101441.72;4962556;28;46269;-87
2021/07/10 11:00:23;;;;;;;;;3.25;2.25;;;;;21.86;56.72;101437.75;4962119;28;45563;-87
2021/07/10 11:02:48;;;;;;;;;1.25;1.25;;;;;21.89;55.93;101434.88;4974551;28;45319;-85
2021/07/10 11:05:15;;;;;;;;;3.25;3.00;;;;;21.94;56.81;101442.59;4958256;28;45403;-86
2021/07/10 11:07:41;;;;;;;;;5.25;5.00;;;;;21.97;56.77;101445.91;4971652;28;46487;-86
2021/07/10 11:10:16;;;;;;;;;2.50;2.50;;;;;22.01;56.06;101444.72;4961969;28;45222;-86
2021/07/10 11:12:58;;;;;;;;;2.25;2.25;;;;;22.01;55.81;101433.16;4960748;28;45341;-87
2021/07/10 11:15:30;;;;;;;;;2.00;2.00;;;;;22.10;55.51;101440.53;4959864;28;45591;-86